Time;durP1;ratioP1;P1;durP2;ratioP2;P2;SDS_P1;SDS_P2;PMS_P1;PMS_P2;Temp;Humidity;BMP_temperature;BMP_pressure;BME280_temperature;BME280_humidity;BME280_pressure;Samples;Min_cycle;Max_cycle;Signal;HPM_P1;HPM_P2
2022/05/06 00:01:54;;;;;;;6.15;3.40;;;;;;;10.65;63.71;101926.38;5108601;28;20075;-71
2022/05/06 00:04:21;;;;;;;12.63;3.33;;;;;;;10.73;63.01;101927.00;5108385;27;20054;-72
2022/05/06 00:06:47;;;;;;;4.97;3.10;;;;;;;11.01;62.28;101933.94;5108477;27;20415;-72
2022/05/06 00:09:14;;;;;;;5.32;2.90;;;;;;;10.54;63.71;101925.88;5106140;27;20476;-72
2022/05/06 00:11:40;;;;;;;6.72;3.17;;;;;;;10.06;66.22;101923.00;5106701;27;20079;-72
2022/05/06 00:14:06;;;;;;;5.70;2.83;;;;;;;9.92;66.76;101919.09;5108521;28;20066;-72
2022/05/06 00:16:34;;;;;;;6.07;2.97;;;;;;;9.88;67.05;101922.72;5108386;27;20044;-72
2022/05/06 00:19:00;;;;;;;6.07;2.97;;;;;;;9.71;67.98;101921.47;5106623;27;20560;-72
2022/05/06 00:21:27;;;;;;;5.57;2.72;;;;;;;9.77;67.46;101929.13;5108101;28;20044;-72
2022/05/06 00:23:53;;;;;;;9.63;3.33;;;;;;;10.60;64.65;101936.19;5105899;27;20071;-72
2022/05/06 00:26:20;;;;;;;4.30;2.90;;;;;;;10.60;63.82;101927.44;5107215;27;20059;-72
2022/05/06 00:28:46;;;;;;;5.25;3.00;;;;;;;10.35;64.56;101934.41;5107362;27;20114;-72
2022/05/06 00:31:13;;;;;;;4.75;2.80;;;;;;;10.41;64.08;101936.81;5107590;27;20077;-72
2022/05/06 00:33:43;;;;;;;8.30;3.13;;;;;;;10.07;65.05;101940.47;5108087;27;20044;-72
2022/05/06 00:36:09;;;;;;;6.63;3.10;;;;;;;9.58;67.21;101948.03;5101064;28;20071;-72
2022/05/06 00:38:36;;;;;;;4.70;3.10;;;;;;;9.67;67.13;101946.03;5098850;28;20093;-72
2022/05/06 00:41:02;;;;;;;5.38;2.80;;;;;;;10.04;65.49;101943.19;5107392;27;20055;-72
2022/05/06 00:43:28;;;;;;;5.72;2.67;;;;;;;10.07;65.16;101945.69;5109992;27;20051;-72
2022/05/06 00:45:56;;;;;;;7.53;3.47;;;;;;;10.20;64.63;101948.81;5109668;27;20048;-72
2022/05/06 00:48:25;;;;;;;6.18;2.95;;;;;;;10.02;65.02;101946.72;5109229;27;20043;-72
2022/05/06 00:50:54;;;;;;;5.30;2.97;;;;;;;10.30;64.11;101945.03;5108435;27;20039;-73
2022/05/06 00:53:21;;;;;;;5.45;3.13;;;;;;;10.39;63.81;101942.09;5109453;27;20093;-72
2022/05/06 00:55:49;;;;;;;7.65;2.88;;;;;;;10.27;63.07;101950.38;5100935;27;20067;-73
2022/05/06 00:58:16;;;;;;;3.78;2.83;;;;;;;10.14;64.50;101934.16;5103248;27;20104;-72
2022/05/06 01:00:42;;;;;;;8.70;3.03;;;;;;;10.49;63.45;101940.91;5107655;27;20048;-72
2022/05/06 01:03:09;;;;;;;5.15;3.05;;;;;;;10.42;63.52;101931.50;5110135;27;20429;-72
2022/05/06 01:05:35;;;;;;;5.18;2.92;;;;;;;10.52;62.90;101938.19;5109617;28;20065;-72
2022/05/06 01:08:03;;;;;;;6.82;2.97;;;;;;;10.07;64.78;101937.84;5105014;27;20123;-72
2022/05/06 01:10:29;;;;;;;5.10;2.80;;;;;;;10.35;63.68;101947.50;5106020;27;24503;-72
2022/05/06 01:12:56;;;;;;;6.35;2.90;;;;;;;10.22;64.88;101933.91;5109209;27;20128;-72
2022/05/06 01:15:24;;;;;;;6.00;3.13;;;;;;;10.35;64.63;101937.84;5107675;27;20050;-72
2022/05/06 01:17:53;;;;;;;5.78;3.00;;;;;;;10.15;65.17;101942.88;5109258;28;20420;-72
2022/05/06 01:20:20;;;;;;;6.68;3.15;;;;;;;10.25;64.86;101939.91;5108357;28;20044;-72
2022/05/06 01:22:49;;;;;;;10.13;3.30;;;;;;;10.26;64.69;101935.53;5109168;28;20108;-72
2022/05/06 01:25:17;;;;;;;5.47;2.95;;;;;;;9.98;66.29;101942.47;5106852;27;20071;-72
2022/05/06 01:27:47;;;;;;;7.10;3.13;;;;;;;10.32;65.12;101951.06;5108875;27;20457;-72
2022/05/06 01:30:23;;;;;;;7.15;2.92;;;;;;;10.58;64.27;101948.47;5107285;27;20051;-72
2022/05/06 01:32:50;;;;;;;8.50;3.13;;;;;;;10.36;65.02;101950.06;5108168;27;20044;-72
2022/05/06 01:35:20;;;;;;;8.30;3.30;;;;;;;10.44;64.66;101947.19;5109182;27;20039;-72
2022/05/06 01:37:50;;;;;;;5.95;3.35;;;;;;;10.35;65.71;101950.13;5106421;28;20457;-72
2022/05/06 01:40:21;;;;;;;10.55;3.72;;;;;;;10.46;64.99;101954.09;5103772;27;20089;-72
2022/05/06 01:42:50;;;;;;;6.53;3.20;;;;;;;10.40;64.06;101946.44;5108369;27;20475;-72
2022/05/06 01:45:19;;;;;;;8.77;3.13;;;;;;;10.46;63.49;101948.84;5109040;27;20044;-72
2022/05/06 01:47:46;;;;;;;12.48;5.00;;;;;;;10.15;63.70;101951.59;5109346;27;20392;-72
2022/05/06 01:50:13;;;;;;;8.13;5.05;;;;;;;10.05;63.67;101952.72;5107746;27;20039;-72
2022/05/06 01:52:41;;;;;;;11.52;5.10;;;;;;;9.83;64.45;101951.66;5094581;27;20040;-72
2022/05/06 01:55:09;;;;;;;9.23;4.25;;;;;;;9.90;64.01;101952.34;5089828;28;20694;-73
2022/05/06 01:57:36;;;;;;;8.35;5.10;;;;;;;9.34;65.97;101957.44;5108789;28;20043;-73
2022/05/06 02:00:05;;;;;;;11.93;5.10;;;;;;;9.46;65.54;101959.69;5107401;27;20063;-72
2022/05/06 02:02:31;;;;;;;12.52;5.55;;;;;;;8.86;67.83;101954.34;5108160;27;20501;-72
2022/05/06 02:07:41;;;;;;;7.95;4.43;;;;;;;8.96;68.73;101955.84;5108763;27;20050;-73
2022/05/06 02:10:09;;;;;;;7.20;4.22;;;;;;;9.15;68.03;101950.97;5108460;27;20051;-73
2022/05/06 02:12:35;;;;;;;5.57;3.88;;;;;;;9.44;66.85;101945.81;5107861;27;20043;-73
2022/05/06 02:15:02;;;;;;;6.32;3.85;;;;;;;9.38;67.29;101964.31;5108245;28;20071;-73
2022/05/06 02:17:28;;;;;;;8.60;4.00;;;;;;;9.30;66.08;101953.19;5107776;28;20527;-72
2022/05/06 02:19:55;;;;;;;10.43;4.35;;;;;;;9.31;66.52;101951.44;5108207;28;20097;-72
2022/05/06 02:22:22;;;;;;;8.07;4.07;;;;;;;9.38;66.59;101952.97;5107791;28;20097;-73
2022/05/06 02:24:48;;;;;;;5.45;3.47;;;;;;;9.12;67.39;101961.53;5108822;28;20557;-73
2022/05/06 02:27:16;;;;;;;6.00;3.55;;;;;;;8.68;68.94;101958.25;5108361;27;20039;-73
2022/05/06 02:33:12;;;;;;;7.45;3.70;;;;;;;8.65;70.54;101960.09;5107541;27;20483;-73
2022/05/06 02:35:12;;;;;;;9.57;3.28;;;;;;;8.22;72.70;101950.63;5096932;28;20173;-73
2022/05/06 02:37:40;;;;;;;6.80;3.67;;;;;;;8.21;72.43;101958.50;5090098;28;20044;-73
2022/05/06 02:40:08;;;;;;;8.48;4.07;;;;;;;7.91;74.58;101953.97;5107786;27;20085;-73
2022/05/06 02:42:36;;;;;;;5.13;3.50;;;;;;;8.06;73.27;101949.25;5107338;27;20461;-72
2022/05/06 02:45:02;;;;;;;6.57;3.67;;;;;;;7.89;73.29;101955.72;5108595;28;20593;-73
2022/05/06 02:47:29;;;;;;;6.47;3.72;;;;;;;7.82;73.62;101952.41;5108317;28;20124;-73
2022/05/06 02:49:55;;;;;;;7.57;4.10;;;;;;;8.19;72.33;101955.06;5107613;28;20040;-73
2022/05/06 02:52:22;;;;;;;6.00;3.78;;;;;;;8.33;71.04;101958.25;5107498;27;20109;-73
2022/05/06 02:54:48;;;;;;;8.32;4.10;;;;;;;8.28;71.22;101955.75;5108776;28;20089;-73
2022/05/06 02:57:15;;;;;;;6.05;4.07;;;;;;;8.21;71.50;101951.53;5107945;27;20078;-73
2022/05/06 02:59:42;;;;;;;6.30;3.50;;;;;;;8.35;71.31;101951.25;5107413;27;20137;-73
2022/05/06 03:02:09;;;;;;;8.70;4.40;;;;;;;8.35;71.32;101951.25;5104109;27;20072;-73
2022/05/06 03:04:36;;;;;;;5.95;3.72;;;;;;;8.29;71.06;101957.47;5103556;28;20043;-73
2022/05/06 03:07:06;;;;;;;8.13;3.85;;;;;;;8.53;70.48;101961.28;5111897;27;20046;-73
2022/05/06 03:09:33;;;;;;;7.22;3.80;;;;;;;8.54;69.57;101962.97;5102995;27;20403;-73
2022/05/06 03:11:59;;;;;;;6.07;4.03;;;;;;;8.36;70.39;101954.69;5111029;27;20048;-73
2022/05/06 03:14:26;;;;;;;7.18;3.65;;;;;;;8.60;69.14;101959.38;5096146;27;20098;-73
2022/05/06 03:16:54;;;;;;;6.80;3.47;;;;;;;8.70;68.92;101958.25;5109528;28;20044;-73
2022/05/06 03:19:20;;;;;;;6.35;3.97;;;;;;;8.47;70.26;101956.16;5109822;28;20487;-73
2022/05/06 03:21:52;;;;;;;5.82;3.40;;;;;;;8.70;69.53;101951.25;5111693;27;20043;-73
2022/05/06 03:24:19;;;;;;;8.80;3.58;;;;;;;8.60;68.35;101952.38;5111604;27;20109;-73
2022/05/06 03:26:46;;;;;;;6.00;3.40;;;;;;;8.78;67.59;101956.31;5111043;28;20074;-73
2022/05/06 03:29:13;;;;;;;10.75;3.97;;;;;;;8.92;67.33;101948.97;5104122;27;20411;-73
2022/05/06 03:31:39;;;;;;;6.40;3.53;;;;;;;8.98;66.75;101954.03;5105053;27;20044;-73
2022/05/06 03:34:07;;;;;;;6.32;3.70;;;;;;;9.04;65.78;101959.13;5111292;28;20113;-73
2022/05/06 03:36:33;;;;;;;6.72;3.90;;;;;;;9.08;66.79;101952.03;5110819;28;20472;-73
2022/05/06 03:39:00;;;;;;;8.43;3.80;;;;;;;9.16;66.36;101957.94;5109961;27;20104;-73
2022/05/06 03:41:26;;;;;;;5.82;3.58;;;;;;;9.17;66.51;101955.25;5109393;28;20047;-73
2022/05/06 03:43:53;;;;;;;13.63;4.07;;;;;;;9.21;66.63;101962.13;5110861;27;20495;-72
2022/05/06 03:46:20;;;;;;;9.57;4.20;;;;;;;9.22;67.01;101961.25;5110411;27;20051;-72
2022/05/06 03:48:46;;;;;;;7.57;4.40;;;;;;;9.28;66.98;101971.53;5110869;27;20088;-73
2022/05/06 03:51:21;;;;;;;8.98;4.13;;;;;;;9.32;67.08;101966.22;5092523;28;20101;-73
2022/05/06 03:53:48;;;;;;;8.18;4.50;;;;;;;9.09;67.34;101972.09;5090962;28;20048;-73
2022/05/06 03:56:14;;;;;;;9.13;4.50;;;;;;;8.99;67.99;101970.56;5098317;28;20047;-73
2022/05/06 03:58:41;;;;;;;7.30;4.32;;;;;;;8.94;68.39;101977.72;5106271;28;20549;-72
2022/05/06 04:01:08;;;;;;;9.40;4.32;;;;;;;8.92;68.86;101974.25;5105313;27;20097;-73
2022/05/06 04:03:34;;;;;;;6.47;3.92;;;;;;;8.86;69.49;101979.66;5110839;27;20172;-73
2022/05/06 04:06:01;;;;;;;10.93;4.82;;;;;;;8.96;69.18;101978.50;5109781;27;20116;-71
2022/05/06 04:08:28;;;;;;;8.77;4.13;;;;;;;9.03;68.72;101972.22;5110555;27;20043;-72
2022/05/06 04:10:55;;;;;;;10.60;4.13;;;;;;;9.13;68.28;101976.31;5109763;27;20048;-72
2022/05/06 04:13:21;;;;;;;10.77;4.60;;;;;;;9.21;67.99;101974.34;5109403;27;20112;-72
2022/05/06 04:15:48;;;;;;;6.75;4.18;;;;;;;9.19;67.57;101984.03;5109715;27;20537;-72
2022/05/06 04:18:14;;;;;;;10.77;4.13;;;;;;;9.19;67.73;101984.03;5110680;27;20047;-72
2022/05/06 04:23:32;;;;;;;8.73;4.40;;;;;;;9.28;68.35;101984.63;5110653;27;20055;-72
2022/05/06 04:26:01;;;;;;;6.35;4.13;;;;;;;9.49;67.53;101974.50;5109786;27;20052;-71
2022/05/06 04:28:27;;;;;;;9.38;4.80;;;;;;;9.58;67.95;101987.31;5110404;27;20092;-72
2022/05/06 04:30:54;;;;;;;11.20;4.85;;;;;;;9.65;68.39;101984.47;5109395;27;20088;-72
2022/05/06 04:33:22;;;;;;;9.43;4.82;;;;;;;9.78;68.07;101982.38;5110239;27;20039;-72
2022/05/06 04:35:49;;;;;;;8.15;4.70;;;;;;;9.99;67.58;101980.88;5109191;28;20069;-72
2022/05/06 04:38:15;;;;;;;9.52;4.60;;;;;;;9.99;67.83;101984.38;5109767;28;20453;-71
2022/05/06 04:40:42;;;;;;;8.75;4.80;;;;;;;10.04;67.56;101986.88;5109449;27;20093;-71
2022/05/06 04:43:10;;;;;;;7.32;4.88;;;;;;;9.94;68.07;101988.03;5110432;27;20403;-72
2022/05/06 04:45:37;;;;;;;10.18;5.00;;;;;;;10.07;67.72;101984.16;5109386;27;20048;-72
2022/05/06 04:48:05;;;;;;;9.27;4.65;;;;;;;10.13;67.92;101991.81;5109892;27;20040;-72
2022/05/06 04:50:31;;;;;;;7.97;4.90;;;;;;;10.33;67.57;101992.13;5109433;28;20071;-72
2022/05/06 04:52:58;;;;;;;11.68;4.82;;;;;;;10.28;67.14;101996.63;5110071;27;20044;-72
2022/05/06 04:55:24;;;;;;;8.60;4.55;;;;;;;10.10;67.67;101999.78;5109310;28;20047;-72
2022/05/06 04:57:51;;;;;;;9.60;4.78;;;;;;;10.34;67.85;102004.31;5109609;27;20097;-71
2022/05/06 05:00:19;;;;;;;8.30;5.30;;;;;;;10.54;67.50;102003.69;5108718;27;20097;-72
2022/05/06 05:02:46;;;;;;;9.57;5.57;;;;;;;10.83;66.94;102002.78;5109451;27;20048;-72
2022/05/06 05:05:12;;;;;;;8.13;4.80;;;;;;;10.87;66.09;102002.59;5102996;28;20039;-72
2022/05/06 05:07:39;;;;;;;13.80;6.45;;;;;;;11.16;65.83;101993.75;5100379;28;20044;-72
2022/05/06 05:10:06;;;;;;;8.70;5.05;;;;;;;11.47;65.92;101998.81;5108779;27;20044;-72
2022/05/06 05:12:33;;;;;;;8.70;4.95;;;;;;;11.87;64.85;102003.50;5108743;27;20556;-72
2022/05/06 05:14:59;;;;;;;10.88;4.78;;;;;;;11.75;65.42;102006.59;5108786;27;20557;-72
2022/05/06 05:17:27;;;;;;;12.77;5.00;;;;;;;12.16;64.74;102003.25;5108035;28;20040;-72
2022/05/06 05:19:53;;;;;;;9.10;4.88;;;;;;;12.56;63.50;102005.22;5108667;28;20047;-72
2022/05/06 05:22:20;;;;;;;7.88;4.80;;;;;;;12.54;64.15;102005.28;5109711;27;20116;-72
2022/05/06 05:24:47;;;;;;;11.02;4.72;;;;;;;12.62;64.20;102002.34;5108956;28;20090;-72
2022/05/06 05:27:14;;;;;;;11.38;4.82;;;;;;;12.84;64.96;102015.47;5107789;27;20541;-72
2022/05/06 05:29:40;;;;;;;10.93;4.88;;;;;;;13.18;63.44;102010.56;5108882;28;20047;-72
2022/05/06 05:32:08;;;;;;;9.70;4.80;;;;;;;13.46;61.90;102010.22;5105878;27;20574;-72
2022/05/06 05:34:36;;;;;;;7.45;4.63;;;;;;;13.92;61.19;102016.97;5109204;27;20116;-72
2022/05/06 05:37:02;;;;;;;5.43;4.20;;;;;;;14.38;59.28;102013.06;5108844;27;20103;-72
2022/05/06 05:39:31;;;;;;;8.80;4.72;;;;;;;14.75;60.14;102007.72;5108562;27;20070;-72
2022/05/06 05:41:58;;;;;;;7.22;4.90;;;;;;;15.33;57.74;102015.41;5108927;27;20062;-72
2022/05/06 05:49:53;;;;;;;11.55;4.88;;;;;;;16.41;56.72;101998.06;5108490;28;20047;-72
2022/05/06 05:52:19;;;;;;;9.02;4.70;;;;;;;17.08;54.64;102014.56;5109415;28;20048;-72
2022/05/06 05:54:45;;;;;;;11.18;5.22;;;;;;;17.10;54.90;102016.19;5109011;28;20043;-72
2022/05/06 05:57:12;;;;;;;7.85;5.13;;;;;;;17.44;53.28;102017.72;5108681;28;20104;-72
2022/05/06 05:59:39;;;;;;;8.82;5.18;;;;;;;16.81;53.97;102019.69;5107906;27;20043;-72
2022/05/06 06:02:06;;;;;;;11.13;5.07;;;;;;;16.93;54.87;102021.59;5106988;27;20047;-72
2022/05/06 06:04:32;;;;;;;13.10;5.72;;;;;;;16.14;56.55;102017.28;5108865;28;20055;-72
2022/05/06 06:07:00;;;;;;;10.73;5.47;;;;;;;16.83;55.62;102021.31;5108546;28;20051;-72
2022/05/06 06:09:27;;;;;;;8.20;4.82;;;;;;;17.75;52.28;102014.06;5107780;27;20411;-72
2022/05/06 06:11:54;;;;;;;7.13;4.97;;;;;;;18.05;51.50;102017.47;5108579;27;20035;-72
2022/05/06 06:14:20;;;;;;;22.75;20.55;;;;;;;17.30;52.50;102029.13;5108896;27;20105;-72
2022/05/06 06:16:48;;;;;;;22.13;19.67;;;;;;;17.11;53.00;102025.84;5098123;27;20385;-72
2022/05/06 06:19:15;;;;;;;36.15;22.70;;;;;;;17.56;53.79;102032.00;5087754;28;20091;-72
2022/05/06 06:21:42;;;;;;;33.50;26.15;;;;;;;18.00;49.60;102024.84;5088839;28;20052;-72
2022/05/06 06:24:09;;;;;;;34.40;29.40;;;;;;;17.78;52.62;102028.00;5103115;28;20555;-72
2022/05/06 06:26:36;;;;;;;24.58;22.15;;;;;;;17.84;52.14;102032.94;5104397;27;20076;-72
2022/05/06 06:29:03;;;;;;;21.73;18.20;;;;;;;18.87;49.29;102026.31;5093617;28;20044;-72
2022/05/06 06:31:30;;;;;;;26.40;20.70;;;;;;;19.35;49.70;102027.50;5095425;28;20063;-72
2022/05/06 06:33:57;;;;;;;17.02;12.10;;;;;;;18.86;49.36;102026.41;5102011;28;20506;-72
2022/05/06 06:36:23;;;;;;;19.98;12.35;;;;;;;18.50;50.42;102032.28;5102040;28;20516;-72
2022/05/06 06:38:50;;;;;;;14.35;9.10;;;;;;;18.91;48.76;102037.59;5102932;27;20100;-72
2022/05/06 06:41:18;;;;;;;9.80;4.80;;;;;;;19.18;47.85;102040.22;5110587;27;20048;-72
2022/05/06 06:43:44;;;;;;;6.88;4.43;;;;;;;19.51;45.40;102034.47;5109327;28;20407;-72
2022/05/06 06:46:11;;;;;;;11.77;4.90;;;;;;;19.97;44.86;102026.78;5101419;28;20487;-72
2022/05/06 06:48:39;;;;;;;8.63;4.47;;;;;;;20.31;43.90;102024.31;5110773;28;20040;-72
2022/05/06 06:51:06;;;;;;;8.52;3.95;;;;;;;20.81;44.74;102033.06;5111901;27;20783;-72
2022/05/06 06:53:32;;;;;;;5.93;3.65;;;;;;;21.87;39.57;102032.91;5094656;28;20165;-72
2022/05/06 06:55:59;;;;;;;8.38;4.07;;;;;;;21.62;38.81;102030.44;5098796;28;20108;-72
2022/05/06 06:58:26;;;;;;;8.65;3.80;;;;;;;22.15;36.04;102027.09;5108691;27;20104;-72
2022/05/06 07:00:53;;;;;;;9.65;3.60;;;;;;;21.97;38.89;102041.94;5111337;27;20040;-72
2022/05/06 07:03:20;;;;;;;5.57;2.92;;;;;;;20.96;39.03;102041.72;5111713;27;20495;-75
2022/05/06 07:14:02;;;;;;;9.73;3.33;;;;;;;21.71;42.14;102051.09;5093604;27;20039;-75
2022/05/06 07:16:29;;;;;;;6.40;2.50;;;;;;;22.14;36.59;102043.25;5112053;27;20055;-75
2022/05/06 07:18:55;;;;;;;5.50;2.35;;;;;;;22.12;37.30;102046.06;5104895;28;20043;-75
2022/05/06 07:21:22;;;;;;;6.30;2.40;;;;;;;21.07;39.02;102045.28;5112137;27;20079;-74
2022/05/06 07:23:48;;;;;;;8.38;2.67;;;;;;;20.97;39.46;102049.63;5112247;27;20104;-74
2022/05/06 07:26:14;;;;;;;5.68;2.25;;;;;;;21.07;39.78;102055.97;5111407;28;20048;-72
2022/05/06 07:28:41;;;;;;;6.20;1.65;;;;;;;20.76;38.75;102054.75;5102091;28;20047;-72
2022/05/06 07:31:09;;;;;;;7.32;1.50;;;;;;;21.28;40.98;102051.75;5106179;27;20044;-72
2022/05/06 07:33:35;;;;;;;3.42;1.52;;;;;;;21.22;37.33;102056.66;5111653;27;20052;-72
2022/05/06 07:36:01;;;;;;;6.50;2.00;;;;;;;21.01;36.92;102055.56;5111173;27;20112;-72
2022/05/06 07:38:28;;;;;;;5.38;2.40;;;;;;;22.48;35.70;102036.88;5111017;27;20051;-72
2022/05/06 07:40:54;;;;;;;6.05;2.28;;;;;;;23.57;33.69;102042.94;5110611;27;20043;-73
2022/05/06 07:43:21;;;;;;;8.80;2.70;;;;;;;23.77;33.02;102040.22;5110708;27;20475;-73
2022/05/06 07:45:47;;;;;;;6.10;2.58;;;;;;;22.27;35.48;102047.50;5101238;28;20044;-72
2022/05/06 07:48:15;;;;;;;5.18;2.60;;;;;;;21.01;39.24;102051.09;5104301;27;20052;-72
2022/05/06 07:50:44;;;;;;;5.60;3.05;;;;;;;21.08;37.22;102047.00;5110058;28;20088;-72
2022/05/06 07:53:10;;;;;;;4.25;2.60;;;;;;;22.71;38.68;102043.06;5107146;28;20071;-72
2022/05/06 07:55:36;;;;;;;4.22;2.40;;;;;;;22.47;36.98;102042.38;5110022;28;20043;-72
2022/05/06 07:58:04;;;;;;;5.47;2.60;;;;;;;23.03;36.01;102043.06;5110529;27;20127;-72
2022/05/06 08:00:31;;;;;;;4.68;2.38;;;;;;;24.19;35.86;102041.03;5109414;27;20048;-72
2022/05/06 08:05:44;;;;;;;5.65;3.08;;;;;;;24.84;32.46;102039.63;5104003;27;20054;-72
2022/05/06 08:08:11;;;;;;;6.30;3.08;;;;;;;25.50;33.59;102042.41;5110461;28;20040;-72
2022/05/06 08:10:37;;;;;;;7.88;3.22;;;;;;;25.29;32.75;102036.38;5110168;27;20043;-72
2022/05/06 08:13:04;;;;;;;10.52;2.95;;;;;;;25.37;34.71;102039.19;5110174;27;20043;-72
2022/05/06 08:15:30;;;;;;;5.70;2.60;;;;;;;25.60;33.94;102033.38;5105122;28;20043;-72
2022/05/06 08:17:57;;;;;;;5.47;3.10;;;;;;;25.28;31.42;102029.28;5109891;27;20040;-72
2022/05/06 08:20:23;;;;;;;3.97;2.33;;;;;;;24.32;33.41;102029.19;5109040;28;20047;-72
2022/05/06 08:22:51;;;;;;;5.30;2.50;;;;;;;24.39;34.28;102030.38;5110280;28;20096;-72
2022/05/06 08:25:17;;;;;;;5.47;2.55;;;;;;;25.03;31.73;102025.38;5109965;28;20089;-72
2022/05/06 08:27:45;;;;;;;5.20;2.60;;;;;;;25.41;30.59;102029.84;5110691;28;20039;-72
2022/05/06 08:30:13;;;;;;;9.40;3.40;;;;;;;25.91;30.55;102027.75;5109606;27;20108;-72
2022/05/06 08:32:40;;;;;;;6.53;2.83;;;;;;;26.11;29.69;102022.16;5110471;27;20109;-72
2022/05/06 08:35:08;;;;;;;8.93;2.78;;;;;;;26.67;30.41;102020.28;5110378;27;20461;-72
2022/05/06 08:37:40;;;;;;;8.15;2.83;;;;;;;26.31;29.81;102030.16;5109604;27;20784;-72
2022/05/06 08:40:10;;;;;;;5.78;2.60;;;;;;;26.34;31.98;102028.00;5109727;27;20127;-72
2022/05/06 08:42:36;;;;;;;7.70;2.70;;;;;;;26.70;30.17;102028.06;5108850;28;20040;-72
2022/05/06 08:53:16;;;;;;;5.55;3.00;;;;;;;26.18;31.93;102030.50;5109890;28;20076;-72
2022/05/06 08:55:44;;;;;;;8.20;3.15;;;;;;;25.93;32.46;102029.31;5092808;28;20709;-72
2022/05/06 08:58:10;;;;;;;4.40;2.80;;;;;;;26.46;31.59;102020.59;5103977;28;20044;-72
2022/05/06 09:00:37;;;;;;;5.65;3.20;;;;;;;26.84;29.04;102014.09;5108592;27;20092;-72
2022/05/06 09:03:03;;;;;;;4.60;3.47;;;;;;;27.10;29.08;102020.38;5101429;28;20048;-72
2022/05/06 09:05:31;;;;;;;10.35;3.45;;;;;;;25.99;32.61;102017.09;5104133;28;20047;-72
2022/05/06 09:07:59;;;;;;;6.18;3.60;;;;;;;25.70;33.15;102019.06;5109912;28;20116;-72
2022/05/06 09:10:26;;;;;;;7.75;3.20;;;;;;;26.33;32.33;102012.03;5106497;27;20048;-72
2022/05/06 09:12:56;;;;;;;5.93;3.35;;;;;;;26.06;31.06;102023.59;5103053;28;20487;-72
2022/05/06 09:18:08;;;;;;;4.07;2.67;;;;;;;26.77;31.57;102021.06;5108304;28;20046;-72
2022/05/06 09:20:35;;;;;;;6.45;2.83;;;;;;;26.74;32.54;102013.28;5108865;27;20047;-72
2022/05/06 09:23:20;;;;;;;6.43;2.92;;;;;;;26.78;29.84;102014.69;5110628;27;20043;-72
2022/05/06 09:25:49;;;;;;;3.55;2.30;;;;;;;27.06;28.95;102017.16;5109426;27;20043;-72
2022/05/06 09:28:23;;;;;;;5.50;2.58;;;;;;;27.27;30.15;102008.72;5109764;28;20043;-72
2022/05/06 09:31:01;;;;;;;6.20;2.60;;;;;;;27.61;29.71;102011.53;5109519;27;20564;-72
2022/05/06 09:33:28;;;;;;;4.95;2.58;;;;;;;27.70;28.46;102010.56;5110177;27;20044;-72
2022/05/06 09:35:55;;;;;;;6.40;2.53;;;;;;;27.83;30.09;102016.34;5109896;27;20043;-72
2022/05/06 09:38:22;;;;;;;5.43;2.72;;;;;;;28.06;27.71;102014.78;5110043;27;20410;-72
2022/05/06 09:40:49;;;;;;;9.70;3.03;;;;;;;28.21;28.38;102014.19;5101430;27;20044;-72
2022/05/06 09:43:18;;;;;;;8.27;3.25;;;;;;;28.31;27.59;102004.09;5108155;27;20122;-72
2022/05/06 09:45:46;;;;;;;5.18;2.60;;;;;;;28.30;29.55;102011.38;5092223;28;19981;-72
2022/05/06 09:48:14;;;;;;;4.65;2.83;;;;;;;28.17;30.04;102008.28;5104996;28;20473;-71
2022/05/06 09:50:42;;;;;;;7.72;3.38;;;;;;;27.81;28.92;102004.91;5109493;28;20040;-72
2022/05/06 09:53:10;;;;;;;6.43;3.25;;;;;;;26.54;28.15;102009.88;5108930;27;20040;-73
2022/05/06 09:55:39;;;;;;;7.53;3.40;;;;;;;24.95;30.70;102018.03;5109303;27;20393;-73
2022/05/06 09:58:06;;;;;;;4.55;2.78;;;;;;;26.10;34.44;102009.69;5109185;27;20100;-72
2022/05/06 10:00:33;;;;;;;5.75;2.15;;;;;;;26.50;30.80;102000.44;5108429;27;20104;-74
2022/05/06 10:03:02;;;;;;;5.43;2.28;;;;;;;27.01;31.75;102008.69;5102665;28;20043;-73
2022/05/06 10:05:29;;;;;;;4.60;2.10;;;;;;;27.61;32.13;101998.03;5109160;28;20055;-73
2022/05/06 10:07:59;;;;;;;4.20;2.00;;;;;;;27.25;28.81;102005.34;5109168;28;20047;-73
2022/05/06 10:10:28;;;;;;;4.97;2.47;;;;;;;26.71;29.73;102001.00;5107328;27;20096;-74
2022/05/06 10:12:57;;;;;;;4.97;2.70;;;;;;;26.75;30.28;102002.38;5111786;27;20043;-74
2022/05/06 10:15:26;;;;;;;3.85;2.58;;;;;;;27.46;31.90;101992.41;5113294;27;20112;-74
2022/05/06 10:17:54;;;;;;;5.72;2.72;;;;;;;27.73;31.14;101991.38;5108951;27;20048;-73
2022/05/06 10:20:58;;;;;;;7.28;2.78;;;;;;;28.03;30.16;101980.06;5110859;28;20552;-73
2022/05/06 10:23:43;;;;;;;4.95;2.67;;;;;;;28.11;29.41;101987.38;5094759;27;20044;-73
2022/05/06 10:26:10;;;;;;;6.22;2.90;;;;;;;27.88;27.49;101987.09;5112025;27;20378;-74
2022/05/06 10:34:29;;;;;;;3.85;2.25;;;;;;;27.14;31.00;101980.53;5118231;28;20066;-73
2022/05/06 10:36:57;;;;;;;8.23;2.80;;;;;;;26.93;29.70;101992.50;5111533;28;20540;-72
2022/05/06 10:39:26;;;;;;;6.72;2.38;;;;;;;27.60;31.14;101982.91;5116333;27;20044;-72
2022/05/06 10:42:00;;;;;;;7.43;2.72;;;;;;;28.05;26.77;101983.44;5112143;27;20112;-71
2022/05/06 10:44:35;;;;;;;3.05;2.08;;;;;;;28.13;29.69;101977.25;5105805;28;20040;-72
2022/05/06 10:47:02;;;;;;;4.25;2.70;;;;;;;28.15;32.92;101977.09;5104669;28;20564;-72
2022/05/06 10:49:52;;;;;;;7.85;2.70;;;;;;;27.77;26.96;101979.28;5097148;27;20480;-72
2022/05/06 10:52:44;;;;;;;6.97;2.90;;;;;;;27.71;26.54;101971.84;5094659;28;20040;-72
2022/05/06 10:55:14;;;;;;;10.20;3.33;;;;;;;28.20;29.88;101962.09;5113111;27;20290;-72
2022/05/06 10:57:52;;;;;;;6.28;2.60;;;;;;;27.46;27.56;101967.31;5107287;28;20066;-72
2022/05/06 11:00:20;;;;;;;4.68;2.40;;;;;;;26.85;29.11;101965.50;5109958;27;20039;-73
2022/05/06 11:02:47;;;;;;;3.22;1.80;;;;;;;26.24;26.92;101959.97;5114244;27;20267;-73
2022/05/06 11:05:15;;;;;;;3.83;2.00;;;;;;;25.59;28.04;101967.22;5101995;27;20419;-72
2022/05/06 11:07:43;;;;;;;5.30;2.08;;;;;;;24.94;29.96;101960.00;5109229;28;20036;-73
2022/05/06 11:10:12;;;;;;;4.80;2.30;;;;;;;24.41;31.43;101956.00;5117826;27;20043;-72
2022/05/06 11:12:41;;;;;;;3.75;2.00;;;;;;;25.40;28.84;101955.66;5112592;28;20044;-73
2022/05/06 11:15:09;;;;;;;3.50;2.10;;;;;;;24.95;28.64;101959.00;5114228;28;20504;-72
2022/05/06 11:17:36;;;;;;;6.55;2.30;;;;;;;24.87;29.33;101960.72;5107169;28;20051;-71
2022/05/06 11:20:06;;;;;;;6.65;3.17;;;;;;;24.60;29.85;101959.56;5097878;28;20043;-72
2022/05/06 11:22:33;;;;;;;4.82;2.75;;;;;;;25.43;33.67;101948.16;5107463;27;20052;-72
2022/05/06 11:25:00;;;;;;;4.22;2.80;;;;;;;26.41;29.98;101950.25;5090821;28;20563;-73
2022/05/06 11:27:28;;;;;;;8.77;2.40;;;;;;;27.14;31.20;101945.53;5090966;28;20066;-72
2022/05/06 11:29:56;;;;;;;5.20;2.67;;;;;;;27.38;28.74;101943.00;5093556;28;20040;-73
2022/05/06 11:32:23;;;;;;;6.50;3.00;;;;;;;27.85;31.22;101928.09;5104922;27;20047;-73
2022/05/06 11:34:56;;;;;;;6.97;2.80;;;;;;;28.10;29.37;101931.75;5108329;28;20098;-73
2022/05/06 11:37:23;;;;;;;3.30;2.17;;;;;;;27.61;26.87;101925.28;5091805;28;20044;-73
2022/05/06 11:39:49;;;;;;;7.57;2.50;;;;;;;26.99;26.92;101937.19;5105882;27;20184;-73
2022/05/06 11:42:21;;;;;;;6.57;2.08;;;;;;;26.44;27.24;101929.28;5107749;28;20044;-73
2022/05/06 11:47:41;;;;;;;4.78;2.95;;;;;;;25.61;31.12;101940.19;5092110;28;20129;-73
2022/05/06 11:50:08;;;;;;;7.13;3.08;;;;;;;25.01;31.61;101936.97;5089218;28;20106;-73
2022/05/06 11:52:36;;;;;;;4.95;2.63;;;;;;;25.24;30.74;101929.41;5090297;28;20040;-73
2022/05/06 11:55:03;;;;;;;4.57;2.55;;;;;;;25.22;32.24;101934.09;5090270;28;20048;-73
2022/05/06 11:57:30;;;;;;;7.63;3.13;;;;;;;24.94;32.07;101935.00;5104679;27;20051;-73
2022/05/06 11:59:58;;;;;;;3.88;2.80;;;;;;;24.75;32.52;101929.63;5107021;27;20040;-73
2022/05/06 12:02:25;;;;;;;8.85;3.15;;;;;;;24.58;31.72;101936.53;5108160;27;20124;-73
2022/05/06 12:04:51;;;;;;;7.72;2.95;;;;;;;24.32;31.54;101930.00;5097930;28;20278;-73
2022/05/06 12:07:18;;;;;;;4.57;2.70;;;;;;;24.50;31.76;101931.03;5099219;28;20039;-74
2022/05/06 12:09:46;;;;;;;4.07;2.40;;;;;;;24.22;32.94;101933.53;5099695;27;20055;-71
2022/05/06 12:12:13;;;;;;;5.72;2.35;;;;;;;24.18;31.78;101926.75;5107219;27;20096;-70
2022/05/06 12:14:40;;;;;;;9.15;2.72;;;;;;;24.38;32.46;101924.09;5095886;28;20431;-72